createdAt,value
2022-08-17T00:00:33.355Z,5.97
2022-08-17T00:03:11.478Z,4.68
2022-08-17T00:05:43.875Z,5.15
2022-08-17T00:08:14.630Z,4.68
2022-08-17T00:10:44.561Z,4.82
2022-08-17T00:13:18.865Z,5.07
2022-08-17T00:15:46.722Z,4.90
2022-08-17T00:19:00.382Z,4.55
2022-08-17T00:21:10.474Z,5.00
2022-08-17T00:23:47.788Z,4.97
2022-08-17T00:26:43.442Z,4.95
2022-08-17T00:29:07.646Z,4.95
2022-08-17T00:31:37.811Z,4.82
2022-08-17T00:34:08.895Z,4.68
2022-08-17T00:36:36.401Z,4.63
2022-08-17T00:39:05.087Z,4.72
2022-08-17T00:41:32.824Z,5.38
2022-08-17T00:44:02.633Z,6.05
2022-08-17T00:46:36.948Z,4.70
2022-08-17T00:49:06.220Z,5.50
2022-08-17T00:51:44.447Z,5.13
2022-08-17T00:54:20.863Z,4.97
2022-08-17T00:56:53.097Z,4.95
2022-08-17T00:59:24.179Z,5.45
2022-08-17T01:01:52.323Z,4.45
2022-08-17T01:04:22.713Z,4.50
2022-08-17T01:06:51.302Z,5.20
2022-08-17T01:09:19.752Z,5.90
2022-08-17T01:11:53.248Z,5.00
2022-08-17T01:14:23.762Z,5.68
2022-08-17T01:16:54.578Z,5.28
2022-08-17T01:19:26.332Z,5.45
2022-08-17T01:21:57.486Z,5.90
2022-08-17T01:24:25.068Z,7.00
2022-08-17T01:26:52.009Z,8.18
2022-08-17T01:29:22.015Z,6.20
2022-08-17T01:31:58.038Z,6.97
2022-08-17T01:34:28.210Z,7.28
2022-08-17T01:37:10.071Z,5.93
2022-08-17T01:39:44.502Z,4.78
2022-08-17T01:42:23.561Z,5.82
2022-08-17T01:44:57.052Z,5.38
2022-08-17T01:47:24.348Z,5.88
2022-08-17T01:49:51.313Z,6.80
2022-08-17T01:52:19.259Z,5.88
2022-08-17T01:54:47.828Z,5.63
2022-08-17T01:57:15.293Z,5.85
2022-08-17T01:59:42.669Z,5.82
2022-08-17T02:02:10.415Z,5.38
2022-08-17T02:04:37.368Z,6.30
2022-08-17T02:07:05.474Z,5.95
2022-08-17T02:09:32.477Z,6.15
2022-08-17T02:12:38.358Z,6.57
2022-08-17T02:14:52.038Z,6.60
2022-08-17T02:17:18.989Z,7.53
2022-08-17T02:19:46.199Z,5.78
2022-08-17T02:22:13.728Z,5.72
2022-08-17T02:25:00.858Z,6.03
2022-08-17T02:27:29.604Z,5.30
2022-08-17T02:29:56.539Z,5.78
2022-08-17T02:32:28.061Z,5.57
2022-08-17T02:34:57.773Z,6.30
2022-08-17T02:37:26.139Z,5.85
2022-08-17T02:39:53.616Z,5.65
2022-08-17T02:42:28.068Z,6.75
2022-08-17T02:44:55.407Z,5.65
2022-08-17T02:47:22.480Z,5.78
2022-08-17T02:49:55.382Z,4.93
2022-08-17T02:52:53.520Z,6.43
2022-08-17T02:55:15.652Z,5.68
2022-08-17T02:57:43.572Z,6.20
2022-08-17T03:00:18.437Z,5.90
2022-08-17T03:02:45.948Z,7.22
2022-08-17T03:05:16.411Z,6.15
2022-08-17T03:07:45.898Z,5.53
2022-08-17T03:10:14.566Z,6.35
2022-08-17T03:12:43.479Z,5.88
2022-08-17T03:15:27.686Z,5.88
2022-08-17T03:17:56.817Z,5.65
2022-08-17T03:20:25.029Z,5.97
2022-08-17T03:22:55.843Z,5.45
2022-08-17T03:25:34.412Z,6.80
2022-08-17T03:28:02.311Z,5.78
2022-08-17T03:30:29.731Z,5.93
2022-08-17T03:33:00.204Z,6.40
2022-08-17T03:35:31.067Z,5.82
2022-08-17T03:38:00.792Z,5.93
2022-08-17T03:40:55.691Z,6.40
2022-08-17T03:43:18.310Z,6.13
2022-08-17T03:46:03.614Z,7.25
2022-08-17T03:48:52.523Z,7.10
2022-08-17T03:51:42.084Z,6.68
2022-08-17T03:54:29.376Z,11.43
2022-08-17T03:57:06.478Z,26.70
2022-08-17T03:59:35.282Z,70.57
2022-08-17T04:02:09.670Z,87.18
2022-08-17T04:04:38.358Z,82.07
2022-08-17T04:07:06.292Z,52.60
2022-08-17T04:09:33.666Z,59.13
2022-08-17T04:12:04.728Z,53.50
2022-08-17T04:14:51.841Z,55.03
2022-08-17T04:17:27.149Z,64.63
2022-08-17T04:19:55.575Z,78.72
2022-08-17T04:22:33.039Z,71.65
2022-08-17T04:25:05.266Z,74.22
2022-08-17T04:27:32.808Z,90.10
2022-08-17T04:29:59.829Z,86.25
2022-08-17T04:33:03.989Z,64.95
2022-08-17T04:35:22.978Z,58.53
2022-08-17T04:37:51.410Z,47.75
2022-08-17T04:40:39.408Z,37.08
2022-08-17T04:43:29.089Z,34.35
2022-08-17T04:46:02.497Z,28.15
2022-08-17T04:48:36.512Z,15.80
2022-08-17T04:51:19.679Z,13.27
2022-08-17T04:53:54.570Z,10.50
2022-08-17T04:56:24.118Z,11.13
2022-08-17T04:58:53.762Z,11.75
2022-08-17T05:01:24.003Z,9.82
2022-08-17T05:03:58.189Z,7.55
2022-08-17T05:06:26.971Z,6.85
2022-08-17T05:08:54.633Z,7.60
2022-08-17T05:11:23.558Z,8.32
2022-08-17T05:13:50.557Z,8.52
2022-08-17T05:16:19.995Z,9.10
2022-08-17T05:18:47.649Z,9.20
2022-08-17T05:21:15.690Z,9.73
2022-08-17T05:23:43.799Z,9.93
2022-08-17T05:26:25.694Z,9.80
2022-08-17T05:28:59.781Z,9.43
2022-08-17T05:31:30.908Z,11.38
2022-08-17T05:33:58.084Z,7.88
2022-08-17T05:36:41.592Z,9.15
2022-08-17T05:39:15.868Z,9.25
2022-08-17T05:41:48.010Z,9.73
2022-08-17T05:44:16.900Z,7.97
2022-08-17T05:46:50.295Z,8.75
2022-08-17T05:49:23.989Z,8.18
2022-08-17T05:52:00.271Z,8.40
2022-08-17T05:54:57.771Z,8.88
2022-08-17T05:57:57.017Z,8.75
2022-08-17T06:00:35.861Z,8.68
2022-08-17T06:03:19.054Z,8.55
2022-08-17T06:05:49.919Z,7.75
2022-08-17T06:08:17.852Z,8.05
2022-08-17T06:11:21.006Z,7.43
2022-08-17T06:13:58.896Z,7.60
2022-08-17T06:16:34.280Z,8.43
2022-08-17T06:19:17.777Z,7.60
2022-08-17T06:21:49.174Z,8.05
2022-08-17T06:24:25.121Z,8.40
2022-08-17T06:26:54.271Z,8.67
2022-08-17T06:29:27.222Z,8.48
2022-08-17T06:31:54.575Z,8.80
2022-08-17T06:34:22.185Z,9.35
2022-08-17T06:37:27.548Z,8.43
2022-08-17T06:40:33.304Z,7.97
2022-08-17T06:43:34.121Z,8.07
2022-08-17T06:46:18.547Z,7.90
2022-08-17T06:48:52.480Z,7.90
2022-08-17T06:51:33.753Z,7.93
2022-08-17T06:54:10.531Z,7.30
2022-08-17T06:56:54.155Z,8.13
2022-08-17T06:59:56.397Z,6.60
2022-08-17T07:02:55.894Z,7.00
2022-08-17T07:05:31.045Z,7.40
2022-08-17T07:08:29.180Z,7.03
2022-08-17T07:11:03.159Z,7.97
2022-08-17T07:13:55.671Z,6.90
2022-08-17T07:16:32.675Z,7.07
2022-08-17T07:19:00.639Z,7.32
2022-08-17T07:21:52.088Z,7.82
2022-08-17T07:24:41.836Z,6.55
2022-08-17T07:27:27.774Z,8.30
2022-08-17T07:29:59.404Z,7.45
2022-08-17T07:32:31.915Z,7.38
2022-08-17T07:35:19.939Z,7.20
2022-08-17T07:37:54.234Z,6.00
2022-08-17T07:40:28.880Z,7.10
2022-08-17T07:43:15.633Z,7.15
2022-08-17T07:46:22.011Z,6.82
2022-08-17T07:48:54.372Z,6.65
2022-08-17T07:51:31.619Z,6.55
2022-08-17T07:54:14.020Z,6.32
2022-08-17T07:56:56.696Z,6.35
2022-08-17T07:59:28.676Z,8.15
2022-08-17T08:02:18.381Z,6.50
2022-08-17T08:05:29.932Z,7.65
2022-08-17T08:08:18.979Z,6.93
2022-08-17T08:11:01.877Z,5.25
2022-08-17T08:13:32.661Z,5.20
2022-08-17T08:16:20.026Z,5.07
2022-08-17T08:18:54.843Z,5.40
2022-08-17T08:21:47.289Z,4.88
2022-08-17T08:24:31.536Z,4.90
2022-08-17T08:27:07.336Z,4.88
2022-08-17T08:30:05.118Z,4.88
2022-08-17T08:32:50.287Z,5.55
2022-08-17T08:35:40.683Z,7.05
2022-08-17T08:38:25.569Z,5.85
2022-08-17T08:41:07.057Z,6.93
2022-08-17T08:44:07.013Z,5.25
2022-08-17T08:47:28.580Z,5.15
2022-08-17T08:50:38.208Z,5.75
2022-08-17T08:53:25.587Z,5.53
2022-08-17T08:56:06.803Z,6.65
2022-08-17T08:58:56.151Z,5.60
2022-08-17T09:01:23.952Z,5.95
2022-08-17T09:04:25.748Z,4.95
2022-08-17T09:07:01.758Z,5.72
2022-08-17T09:10:08.308Z,5.55
2022-08-17T09:13:09.168Z,5.35
2022-08-17T09:15:48.627Z,4.97
2022-08-17T09:19:00.223Z,5.45
2022-08-17T09:21:50.738Z,5.43
2022-08-17T09:24:43.459Z,4.75
2022-08-17T09:27:20.781Z,6.10
2022-08-17T09:30:02.773Z,4.95
2022-08-17T09:32:57.438Z,5.00
2022-08-17T09:35:37.026Z,5.30
2022-08-17T09:38:35.619Z,4.90
2022-08-17T09:41:31.527Z,5.40
2022-08-17T09:44:26.399Z,5.82
2022-08-17T09:46:56.164Z,5.32
2022-08-17T09:49:35.676Z,4.65
2022-08-17T09:52:24.899Z,4.80
2022-08-17T09:54:55.348Z,5.03
2022-08-17T09:57:40.948Z,4.97
2022-08-17T10:00:17.324Z,5.25
2022-08-17T10:03:22.258Z,4.45
2022-08-17T10:06:09.101Z,5.25
2022-08-17T10:11:52.229Z,5.47
2022-08-17T10:14:37.887Z,4.55
2022-08-17T10:17:15.034Z,4.90
2022-08-17T10:19:54.099Z,5.45
2022-08-17T10:23:00.430Z,4.45
2022-08-17T10:25:55.032Z,5.30
2022-08-17T10:28:30.320Z,4.82
2022-08-17T10:31:30.859Z,4.47
2022-08-17T10:34:08.228Z,4.47
2022-08-17T10:36:50.262Z,3.67
2022-08-17T10:39:34.755Z,4.00
2022-08-17T10:42:32.427Z,4.10
2022-08-17T10:45:16.893Z,5.05
2022-08-17T10:48:05.823Z,4.65
2022-08-17T10:51:03.668Z,4.55
2022-08-17T10:53:33.701Z,4.43
2022-08-17T10:56:15.194Z,4.43
2022-08-17T10:58:54.474Z,5.75
2022-08-17T11:01:47.744Z,6.13
2022-08-17T11:04:42.038Z,4.15
2022-08-17T11:07:44.089Z,5.18
2022-08-17T11:11:04.455Z,4.53
2022-08-17T11:14:09.442Z,4.30
2022-08-17T11:17:01.688Z,3.90
2022-08-17T11:19:53.021Z,3.80
2022-08-17T11:22:33.602Z,6.38
2022-08-17T11:25:20.801Z,3.97
2022-08-17T11:27:54.011Z,3.53
2022-08-17T11:42:27.092Z,4.20
2022-08-17T11:48:27.044Z,3.03
2022-08-17T11:51:19.125Z,3.47
2022-08-17T11:53:46.881Z,3.70
2022-08-17T11:56:35.206Z,3.80
2022-08-17T11:59:23.781Z,3.20
2022-08-17T12:01:56.805Z,3.30
2022-08-17T12:04:32.706Z,5.93
2022-08-17T12:09:50.992Z,2.85
2022-08-17T12:12:22.899Z,4.10
2022-08-17T12:15:12.903Z,3.90
2022-08-17T12:17:52.025Z,3.30
2022-08-17T12:20:40.743Z,2.83
2022-08-17T12:23:41.947Z,3.20
2022-08-17T12:26:22.481Z,2.92
2022-08-17T12:28:57.445Z,3.45
2022-08-17T12:31:35.540Z,3.45
2022-08-17T12:34:05.127Z,3.10
2022-08-17T12:36:33.436Z,3.25
2022-08-17T12:39:12.852Z,4.13
2022-08-17T12:41:50.308Z,4.32
2022-08-17T12:44:19.551Z,4.03
2022-08-17T12:46:54.850Z,3.15
2022-08-17T12:49:32.605Z,3.65
2022-08-17T12:52:20.055Z,5.47
2022-08-17T12:55:06.810Z,4.00
2022-08-17T12:57:44.398Z,3.90
2022-08-17T13:00:18.174Z,4.20
2022-08-17T13:03:19.323Z,3.30
2022-08-17T13:05:53.080Z,3.40
2022-08-17T13:08:38.210Z,2.97
2022-08-17T13:11:18.862Z,3.15
2022-08-17T13:13:56.888Z,3.00
2022-08-17T13:16:27.798Z,2.90
2022-08-17T13:19:15.786Z,3.20
2022-08-17T13:21:52.109Z,3.03
2022-08-17T13:24:26.304Z,2.13
2022-08-17T13:27:08.157Z,2.42
2022-08-17T13:29:44.783Z,1.90
2022-08-17T13:32:16.495Z,2.80
2022-08-17T13:35:12.325Z,2.10
2022-08-17T13:37:40.688Z,3.22
2022-08-17T13:40:09.980Z,2.30
2022-08-17T13:42:51.629Z,3.38
2022-08-17T13:45:35.095Z,3.30
2022-08-17T13:48:07.681Z,3.40
2022-08-17T13:50:37.030Z,2.47
2022-08-17T13:53:18.110Z,2.10
2022-08-17T13:56:08.200Z,2.42
2022-08-17T13:58:54.954Z,2.03
2022-08-17T14:01:41.559Z,2.47
2022-08-17T14:04:18.872Z,2.50
2022-08-17T14:06:54.385Z,2.28
2022-08-17T14:09:29.206Z,1.95
2022-08-17T14:11:59.673Z,2.55
2022-08-17T14:14:27.595Z,1.90
2022-08-17T14:16:57.279Z,1.98
2022-08-17T14:19:25.464Z,1.63
2022-08-17T14:21:59.321Z,2.70
2022-08-17T14:24:39.991Z,2.50
2022-08-17T14:27:10.323Z,2.28
2022-08-17T14:29:37.277Z,2.25
2022-08-17T14:32:17.639Z,2.10
2022-08-17T14:34:46.192Z,2.03
2022-08-17T14:37:13.596Z,2.05
2022-08-17T14:39:41.110Z,2.20
2022-08-17T14:42:11.520Z,2.40
2022-08-17T14:44:39.752Z,1.95
2022-08-17T14:47:12.784Z,2.15
2022-08-17T14:49:40.038Z,2.55
2022-08-17T14:52:07.309Z,3.05
2022-08-17T14:54:34.797Z,2.75
2022-08-17T14:57:22.495Z,2.47
2022-08-17T14:59:54.643Z,3.65
2022-08-17T15:02:29.268Z,2.05
2022-08-17T15:05:03.221Z,3.00
2022-08-17T15:07:32.477Z,2.42
2022-08-17T15:10:02.905Z,3.08
2022-08-17T15:12:33.998Z,2.17
2022-08-17T15:15:06.605Z,2.30
2022-08-17T15:17:44.397Z,1.52
2022-08-17T15:20:27.689Z,2.80
2022-08-17T15:22:57.565Z,1.95
2022-08-17T15:25:27.799Z,2.97
2022-08-17T15:27:56.068Z,2.50
2022-08-17T15:30:23.857Z,2.88
2022-08-17T15:32:55.044Z,3.55
2022-08-17T15:35:28.042Z,2.92
2022-08-17T15:38:12.137Z,2.42
2022-08-17T15:40:46.239Z,2.10
2022-08-17T15:43:24.799Z,2.95
2022-08-17T15:46:04.598Z,2.35
2022-08-17T15:48:43.757Z,2.85
2022-08-17T15:51:27.209Z,2.75
2022-08-17T15:54:04.598Z,2.55
2022-08-17T15:56:47.055Z,3.50
2022-08-17T15:59:14.277Z,2.70
2022-08-17T16:03:04.649Z,2.80
2022-08-17T16:04:29.986Z,2.50
2022-08-17T16:06:59.368Z,2.60
2022-08-17T16:09:27.304Z,2.63
2022-08-17T16:11:56.418Z,3.78
2022-08-17T16:14:32.342Z,2.53
2022-08-17T16:17:03.842Z,2.15
2022-08-17T16:19:31.097Z,2.50
2022-08-17T16:21:58.644Z,2.45
2022-08-17T16:24:26.249Z,2.85
2022-08-17T16:26:55.501Z,2.20
2022-08-17T16:29:23.130Z,2.58
2022-08-17T16:31:51.684Z,2.70
2022-08-17T16:34:19.119Z,2.58
2022-08-17T16:36:55.110Z,2.72
2022-08-17T16:39:29.467Z,3.30
2022-08-17T16:41:57.620Z,3.42
2022-08-17T16:44:26.007Z,3.22
2022-08-17T16:46:53.973Z,3.13
2022-08-17T16:49:35.466Z,2.83
2022-08-17T16:52:05.128Z,3.17
2022-08-17T16:54:32.712Z,3.35
2022-08-17T16:56:59.675Z,3.60
2022-08-17T16:59:38.776Z,3.35
2022-08-17T17:02:12.885Z,3.03
2022-08-17T17:04:48.189Z,2.72
2022-08-17T17:07:44.229Z,3.10
2022-08-17T17:10:15.579Z,2.55
2022-08-17T17:13:02.835Z,3.70
2022-08-17T17:16:01.257Z,3.20
2022-08-17T17:18:56.278Z,2.25
2022-08-17T17:21:31.573Z,3.70
2022-08-17T17:24:10.423Z,4.38
2022-08-17T17:27:21.296Z,3.22
2022-08-17T17:30:04.358Z,4.05
2022-08-17T17:32:39.660Z,3.22
2022-08-17T17:35:16.007Z,3.30
2022-08-17T17:37:46.291Z,3.30
2022-08-17T17:40:20.770Z,3.30
2022-08-17T17:42:51.536Z,3.53
2022-08-17T17:45:26.500Z,3.80
2022-08-17T17:47:53.809Z,4.05
2022-08-17T17:50:30.417Z,3.95
2022-08-17T17:53:10.026Z,3.58
2022-08-17T17:56:34.347Z,4.10
2022-08-17T17:59:12.530Z,4.28
2022-08-17T18:01:58.688Z,4.28
2022-08-17T18:04:50.319Z,4.03
2022-08-17T18:07:42.989Z,4.22
2022-08-17T18:10:40.812Z,4.30
2022-08-17T18:13:40.616Z,4.03
2022-08-17T18:16:14.280Z,4.00
2022-08-17T18:18:44.795Z,5.22
2022-08-17T18:21:20.352Z,6.50
2022-08-17T18:23:53.966Z,4.32
2022-08-17T18:26:33.708Z,4.40
2022-08-17T18:29:11.727Z,4.35
2022-08-17T18:31:39.074Z,4.57
2022-08-17T18:34:45.786Z,4.22
2022-08-17T18:37:12.712Z,4.32
2022-08-17T18:39:44.247Z,3.40
2022-08-17T18:42:27.985Z,4.18
2022-08-17T18:44:55.874Z,4.20
2022-08-17T18:47:29.902Z,3.45
2022-08-17T18:50:18.340Z,4.43
2022-08-17T18:52:49.073Z,4.28
2022-08-17T18:55:21.036Z,4.25
2022-08-17T18:57:55.828Z,4.15
2022-08-17T19:00:40.630Z,4.40
2022-08-17T19:03:20.128Z,5.45
2022-08-17T19:05:52.293Z,4.10
2022-08-17T19:08:28.765Z,5.10
2022-08-17T19:13:39.605Z,4.25
2022-08-17T19:16:25.250Z,5.45
2022-08-17T19:18:59.157Z,4.97
2022-08-17T19:21:52.613Z,5.30
2022-08-17T19:24:23.272Z,6.40
2022-08-17T19:26:59.669Z,5.55
2022-08-17T19:29:57.904Z,4.47
2022-08-17T19:32:29.184Z,4.03
2022-08-17T19:34:57.626Z,4.05
2022-08-17T19:37:33.554Z,4.22
2022-08-17T19:40:10.115Z,4.60
2022-08-17T19:42:47.345Z,4.85
2022-08-17T19:45:33.109Z,4.57
2022-08-17T19:48:20.037Z,4.38
2022-08-17T19:50:54.210Z,4.70
2022-08-17T19:54:04.827Z,5.57
2022-08-17T19:56:45.479Z,4.55
2022-08-17T19:59:36.018Z,4.30
2022-08-17T20:02:31.205Z,4.53
2022-08-17T20:05:06.267Z,4.68
2022-08-17T20:07:49.840Z,5.00
2022-08-17T20:10:55.462Z,4.63
2022-08-17T20:13:32.782Z,4.22
2022-08-17T20:16:01.713Z,4.45
2022-08-17T20:18:52.430Z,4.40
2022-08-17T20:21:25.802Z,4.38
2022-08-17T20:23:59.269Z,4.45
2022-08-17T20:26:39.042Z,5.22
2022-08-17T20:29:37.570Z,4.95
2022-08-17T20:32:17.971Z,4.28
2022-08-17T20:34:46.979Z,4.40
2022-08-17T20:37:14.344Z,4.97
2022-08-17T20:39:49.638Z,4.13
2022-08-17T20:42:19.961Z,4.90
2022-08-17T20:44:49.113Z,4.60
2022-08-17T20:47:26.952Z,4.78
2022-08-17T20:49:57.599Z,4.65
2022-08-17T20:52:49.711Z,4.50
2022-08-17T20:55:51.770Z,4.30
2022-08-17T20:58:30.765Z,5.03
2022-08-17T21:01:01.778Z,4.85
2022-08-17T21:03:47.934Z,5.45
2022-08-17T21:06:19.438Z,4.90
2022-08-17T21:09:13.200Z,5.20
2022-08-17T21:11:56.989Z,4.30
2022-08-17T21:14:38.632Z,5.22
2022-08-17T21:17:29.712Z,5.63
2022-08-17T21:20:13.279Z,5.43
2022-08-17T21:22:51.316Z,5.35
2022-08-17T21:25:39.004Z,5.97
2022-08-17T21:28:20.588Z,5.45
2022-08-17T21:30:57.122Z,5.60
2022-08-17T21:33:34.182Z,6.60
2022-08-17T21:36:14.523Z,6.38
2022-08-17T21:38:57.779Z,5.47
2022-08-17T21:41:30.544Z,4.78
2022-08-17T21:44:19.521Z,5.05
2022-08-17T21:46:50.673Z,4.80
2022-08-17T21:49:21.472Z,4.80
2022-08-17T21:51:56.467Z,5.53
2022-08-17T21:54:42.719Z,5.93
2022-08-17T21:57:31.055Z,5.93
2022-08-17T22:00:01.414Z,5.30
2022-08-17T22:02:36.804Z,5.40
2022-08-17T22:05:15.393Z,5.93
2022-08-17T22:07:47.753Z,5.28
2022-08-17T22:10:32.321Z,5.47
2022-08-17T22:13:20.143Z,5.05
2022-08-17T22:15:51.230Z,4.85
2022-08-17T22:18:27.428Z,5.28
2022-08-17T22:21:04.739Z,4.65
2022-08-17T22:23:58.080Z,5.15
2022-08-17T22:27:02.731Z,4.78
2022-08-17T22:29:57.889Z,5.07
2022-08-17T22:32:43.160Z,5.28
2022-08-17T22:35:31.806Z,4.57
2022-08-17T22:38:22.157Z,4.63
2022-08-17T22:40:59.094Z,4.65
2022-08-17T22:43:28.817Z,4.72
2022-08-17T22:45:59.317Z,4.75
2022-08-17T22:48:29.948Z,4.50
2022-08-17T22:51:13.831Z,4.22
2022-08-17T22:54:09.257Z,4.45
2022-08-17T22:56:55.806Z,4.63
2022-08-17T22:59:50.107Z,4.25
2022-08-17T23:02:35.483Z,4.55
2022-08-17T23:07:46.837Z,4.45
2022-08-17T23:10:14.913Z,4.50
2022-08-17T23:12:42.422Z,5.15
2022-08-17T23:15:16.045Z,4.25
2022-08-17T23:17:46.092Z,4.35
2022-08-17T23:20:15.224Z,4.85
2022-08-17T23:22:51.694Z,4.75
2022-08-17T23:25:31.896Z,4.93
2022-08-17T23:28:01.835Z,4.93
2022-08-17T23:30:31.752Z,4.63
2022-08-17T23:33:06.380Z,4.97
2022-08-17T23:35:39.966Z,4.53
2022-08-17T23:38:10.822Z,5.07
2022-08-17T23:40:39.342Z,3.97
2022-08-17T23:43:25.314Z,4.72
2022-08-17T23:45:57.681Z,4.15
2022-08-17T23:48:32.573Z,4.53
2022-08-17T23:51:09.208Z,5.28
2022-08-17T23:53:42.063Z,5.18
2022-08-17T23:56:11.075Z,4.70
2022-08-17T23:58:43.995Z,4.75
